Nyk Rigel — 3FNL8 — position and weather

sailwx.info

Track history (hours):
 
Tides and Currents Weather Stations Pressure Air Temp Water Temp Dewpoint Dewpoint Depression Visibility Wind Speed Wind Dir Waves Ship Positions

Nyk Rigel

Last reported at 2018-Jun-22 23:00 UTC. Time now 2018-Jun-22 23:00 UTC.
Position N 32°08' W 081°08'.

Length 294 m; draft 11.1 m.

Type: Ship. MMSI: 371449000.

Date/timePositionNaut miles runAvg speedWind from/ knotsBaromVisibWave heightAir tempDewpointWater temp
2018-Jun-22 23:00N 32°08' W 081°08'0 0.6
2018-Jun-22 22:13N 32°07' W 081°08'0 0.0
2018-Jun-22 21:55N 32°07' W 081°08'0 0.0
2018-Jun-22 21:25N 32°07' W 081°08'0 0.0
2018-Jun-22 20:55N 32°07' W 081°08'0 0.0
2018-Jun-22 20:25N 32°07' W 081°08'0 0.0
2018-Jun-22 19:55N 32°07' W 081°08'0 0.0
2018-Jun-22 19:19N 32°07' W 081°08'0 0.0
2018-Jun-22 18:55N 32°07' W 081°08'0 0.0
2018-Jun-22 18:25N 32°07' W 081°08'0 0.0
2018-Jun-22 17:43N 32°07' W 081°08'0 0.1
2018-Jun-22 17:25N 32°07' W 081°08'0 0.0
2018-Jun-22 16:55N 32°07' W 081°08'0 0.0
2018-Jun-22 16:25N 32°07' W 081°08'0 0.0
2018-Jun-22 15:55N 32°07' W 081°08'0 0.0
2018-Jun-22 15:25N 32°07' W 081°08'0 0.0
2018-Jun-22 14:55N 32°07' W 081°08'0 0.0
2018-Jun-22 14:25N 32°07' W 081°08'0 0.0
2018-Jun-22 13:55N 32°07' W 081°08'0 0.0
2018-Jun-22 13:25N 32°07' W 081°08'0 0.0
2018-Jun-22 12:55N 32°07' W 081°08'0 0.0
2018-Jun-22 12:25N 32°07' W 081°08'0 0.0
2018-Jun-22 11:55N 32°07' W 081°08'0 0.0
2018-Jun-22 11:25N 32°07' W 081°08'0 0.0
2018-Jun-22 10:55N 32°07' W 081°08'0 0.0
2018-Jun-22 10:25N 32°07' W 081°08'0 0.0
2018-Jun-22 09:55N 32°07' W 081°08'0 0.0
2018-Jun-22 09:19N 32°07' W 081°08'0 0.0
2018-Jun-22 09:00N 32°07' W 081°08'2 4.1
2018-Jun-22 08:30N 32°06' W 081°06'3 5.4
2018-Jun-22 08:00N 32°05' W 081°03'3 6.0
2018-Jun-22 07:30N 32°06' W 081°00'611.5
2018-Jun-22 07:00N 32°02' W 080°55'612.8
2018-Jun-22 06:30N 32°00' W 080°48'713.6
2018-Jun-22 06:00N 31°57' W 080°41'4 7.1
2018-Jun-22 05:30N 31°56' W 080°37'4 8.1
2018-Jun-22 05:00N 31°56' W 080°32'611.5
2018-Jun-22 04:29N 31°56' W 080°25'611.6
2018-Jun-22 04:00N 31°56' W 080°18'612.0
2018-Jun-22 03:29N 31°56' W 080°11'612.5
2018-Jun-22 03:00N 31°56' W 080°04'816.3
2018-Jun-22 02:30N 31°56' W 079°55'816.8
2018-Jun-22 02:00N 31°56' W 079°45'816.5
2018-Jun-22 01:30N 31°57' W 079°35'816.6
2018-Jun-22 01:00N 31°58' W 079°25'816.6
2018-Jun-22 00:30N 31°58' W 079°16'815.7
2018-Jun-22 00:00N 31°58' W 079°06'714.2
2018-Jun-21 23:30N 31°58' W 078°58'713.4
2018-Jun-21 23:00N 31°58' W 078°50'713.1
2018-Jun-21 22:30N 31°58' W 078°42'713.0
2018-Jun-21 21:56N 31°58' W 078°33'512.8
2018-Jun-21 21:30N 31°58' W 078°27'  
2018-Jun-14 06:00N 48°48' W 009°06'8717.2 290 / 241005.310.8 16.011.021.0
2018-Jun-14 00:55N 49°17' W 007°01'1119.1
2018-Jun-14 00:20N 49°20' W 006°44'719.6
2018-Jun-14 00:00N 49°22' W 006°35'1019.9
2018-Jun-13 23:28N 49°25' W 006°19'1320.3
2018-Jun-13 22:51N 49°31' W 006°02'720.8
2018-Jun-13 22:30N 49°33' W 005°51'1221.1
2018-Jun-13 21:55N 49°37' W 005°33'1320.3
2018-Jun-13 21:16N 49°41' W 005°14'819.5
2018-Jun-13 20:52N 49°44' W 005°03'719.1
2018-Jun-13 20:30N 49°47' W 004°53'1418.7
2018-Jun-13 19:46N 49°52' W 004°33'918.2
2018-Jun-13 19:17N 49°55' W 004°20'1517.7
2018-Jun-13 18:27N 50°00' W 003°59'917.2
2018-Jun-13 17:55N 50°04' W 003°46'716.9
2018-Jun-13 17:31N 50°08' W 003°37'816.1
2018-Jun-13 17:01N 50°13' W 003°28'816.9
2018-Jun-13 16:31N 50°22' W 003°25'4 8.1
2018-Jun-13 16:01N 50°25' W 003°24'713.1
2018-Jun-13 15:30N 50°27' W 003°14'917.4
2018-Jun-13 15:00N 50°27' W 003°00'918.4
2018-Jun-13 14:31N 50°25' W 002°46'1019.3
2018-Jun-13 14:00N 50°25' W 002°31'1020.2
2018-Jun-13 13:31N 50°25' W 002°15'1020.5
2018-Jun-13 13:01N 50°25' W 001°59'1020.6
2018-Jun-13 12:30N 50°25' W 001°43'1020.4
2018-Jun-13 12:01N 50°25' W 001°27'1020.0
2018-Jun-13 11:30N 50°26' W 001°11'1019.1
2018-Jun-13 11:00N 50°27' W 000°56'1019.3
2018-Jun-13 10:30N 50°28' W 000°41'918.1
2018-Jun-13 10:00N 50°30' W 000°27'917.9
2018-Jun-13 09:30N 50°31' W 000°13'917.3
2018-Jun-13 09:00N 50°32' E 000°00'816.8
2018-Jun-13 08:30N 50°35' E 000°13'816.7
2018-Jun-13 08:00N 50°37' E 000°25'917.1
2018-Jun-13 07:30N 50°40' E 000°38'917.4
2018-Jun-13 07:00N 50°45' E 000°50'917.9
2018-Jun-13 06:30N 50°49' E 001°02'918.6
2018-Jun-13 06:00N 50°54' E 001°15'1019.2
2018-Jun-13 05:30N 51°00' E 001°27'919.2
2018-Jun-13 05:00N 51°07' E 001°38'918.3
2018-Jun-13 04:30N 51°14' E 001°47'917.1
2018-Jun-13 04:00N 51°21' E 001°55'612.8
2018-Jun-13 03:30N 51°23' E 002°05'816.5
2018-Jun-13 03:00N 51°20' E 002°17'816.0
2018-Jun-13 02:30N 51°22' E 002°29'815.3
2018-Jun-13 02:00N 51°23' E 002°41'610.9
2018-Jun-13 01:30N 51°25' E 002°49'713.8
2018-Jun-13 01:01N 51°25' E 003°00'815.0
2018-Jun-13 00:31N 51°24' E 003°12'714.6
2018-Jun-13 00:01N 51°25' E 003°24'612.6
2018-Jun-12 23:30N 51°26' E 003°34'  
Track history (hours):
 
Tides and Currents Weather Stations Pressure Air Temp Water Temp Dewpoint Dewpoint Depression Visibility Wind Speed Wind Dir Waves Ship Positions

Nyk Rigel

Last reported at 2018-Jun-22 23:00 UTC. Time now 2018-Jun-22 23:00 UTC.
Position N 32°08' W 081°08'.

Length 294 m; draft 11.1 m.

Type: Ship. MMSI: 371449000.

Date/timePositionNaut miles runAvg speedWind from/ knotsBaromVisibWave heightAir tempDewpointWater temp
2018-Jun-22 23:00N 32°08' W 081°08'0 0.6
2018-Jun-22 22:13N 32°07' W 081°08'0 0.0
2018-Jun-22 21:55N 32°07' W 081°08'0 0.0
2018-Jun-22 21:25N 32°07' W 081°08'0 0.0
2018-Jun-22 20:55N 32°07' W 081°08'0 0.0
2018-Jun-22 20:25N 32°07' W 081°08'0 0.0
2018-Jun-22 19:55N 32°07' W 081°08'0 0.0
2018-Jun-22 19:19N 32°07' W 081°08'0 0.0
2018-Jun-22 18:55N 32°07' W 081°08'0 0.0
2018-Jun-22 18:25N 32°07' W 081°08'0 0.0
2018-Jun-22 17:43N 32°07' W 081°08'0 0.1
2018-Jun-22 17:25N 32°07' W 081°08'0 0.0
2018-Jun-22 16:55N 32°07' W 081°08'0 0.0
2018-Jun-22 16:25N 32°07' W 081°08'0 0.0
2018-Jun-22 15:55N 32°07' W 081°08'0 0.0
2018-Jun-22 15:25N 32°07' W 081°08'0 0.0
2018-Jun-22 14:55N 32°07' W 081°08'0 0.0
2018-Jun-22 14:25N 32°07' W 081°08'0 0.0
2018-Jun-22 13:55N 32°07' W 081°08'0 0.0
2018-Jun-22 13:25N 32°07' W 081°08'0 0.0
2018-Jun-22 12:55N 32°07' W 081°08'0 0.0
2018-Jun-22 12:25N 32°07' W 081°08'0 0.0
2018-Jun-22 11:55N 32°07' W 081°08'0 0.0
2018-Jun-22 11:25N 32°07' W 081°08'0 0.0
2018-Jun-22 10:55N 32°07' W 081°08'0 0.0
2018-Jun-22 10:25N 32°07' W 081°08'0 0.0
2018-Jun-22 09:55N 32°07' W 081°08'0 0.0
2018-Jun-22 09:19N 32°07' W 081°08'0 0.0
2018-Jun-22 09:00N 32°07' W 081°08'2 4.1
2018-Jun-22 08:30N 32°06' W 081°06'3 5.4
2018-Jun-22 08:00N 32°05' W 081°03'3 6.0
2018-Jun-22 07:30N 32°06' W 081°00'611.5
2018-Jun-22 07:00N 32°02' W 080°55'612.8
2018-Jun-22 06:30N 32°00' W 080°48'713.6
2018-Jun-22 06:00N 31°57' W 080°41'4 7.1
2018-Jun-22 05:30N 31°56' W 080°37'4 8.1
2018-Jun-22 05:00N 31°56' W 080°32'611.5
2018-Jun-22 04:29N 31°56' W 080°25'611.6
2018-Jun-22 04:00N 31°56' W 080°18'612.0
2018-Jun-22 03:29N 31°56' W 080°11'612.5
2018-Jun-22 03:00N 31°56' W 080°04'816.3
2018-Jun-22 02:30N 31°56' W 079°55'816.8
2018-Jun-22 02:00N 31°56' W 079°45'816.5
2018-Jun-22 01:30N 31°57' W 079°35'816.6
2018-Jun-22 01:00N 31°58' W 079°25'816.6
2018-Jun-22 00:30N 31°58' W 079°16'815.7
2018-Jun-22 00:00N 31°58' W 079°06'714.2
2018-Jun-21 23:30N 31°58' W 078°58'713.4
2018-Jun-21 23:00N 31°58' W 078°50'713.1
2018-Jun-21 22:30N 31°58' W 078°42'713.0
2018-Jun-21 21:56N 31°58' W 078°33'512.8
2018-Jun-21 21:30N 31°58' W 078°27'  
2018-Jun-14 06:00N 48°48' W 009°06'8717.2 290 / 241005.310.8 16.011.021.0
2018-Jun-14 00:55N 49°17' W 007°01'1119.1
2018-Jun-14 00:20N 49°20' W 006°44'719.6
2018-Jun-14 00:00N 49°22' W 006°35'1019.9
2018-Jun-13 23:28N 49°25' W 006°19'1320.3
2018-Jun-13 22:51N 49°31' W 006°02'720.8
2018-Jun-13 22:30N 49°33' W 005°51'1221.1
2018-Jun-13 21:55N 49°37' W 005°33'1320.3
2018-Jun-13 21:16N 49°41' W 005°14'819.5
2018-Jun-13 20:52N 49°44' W 005°03'719.1
2018-Jun-13 20:30N 49°47' W 004°53'1418.7
2018-Jun-13 19:46N 49°52' W 004°33'918.2
2018-Jun-13 19:17N 49°55' W 004°20'1517.7
2018-Jun-13 18:27N 50°00' W 003°59'917.2
2018-Jun-13 17:55N 50°04' W 003°46'716.9
2018-Jun-13 17:31N 50°08' W 003°37'816.1
2018-Jun-13 17:01N 50°13' W 003°28'816.9
2018-Jun-13 16:31N 50°22' W 003°25'4 8.1
2018-Jun-13 16:01N 50°25' W 003°24'713.1
2018-Jun-13 15:30N 50°27' W 003°14'917.4
2018-Jun-13 15:00N 50°27' W 003°00'918.4
2018-Jun-13 14:31N 50°25' W 002°46'1019.3
2018-Jun-13 14:00N 50°25' W 002°31'1020.2
2018-Jun-13 13:31N 50°25' W 002°15'1020.5
2018-Jun-13 13:01N 50°25' W 001°59'1020.6
2018-Jun-13 12:30N 50°25' W 001°43'1020.4
2018-Jun-13 12:01N 50°25' W 001°27'1020.0
2018-Jun-13 11:30N 50°26' W 001°11'1019.1
2018-Jun-13 11:00N 50°27' W 000°56'1019.3
2018-Jun-13 10:30N 50°28' W 000°41'918.1
2018-Jun-13 10:00N 50°30' W 000°27'917.9
2018-Jun-13 09:30N 50°31' W 000°13'917.3
2018-Jun-13 09:00N 50°32' E 000°00'816.8
2018-Jun-13 08:30N 50°35' E 000°13'816.7
2018-Jun-13 08:00N 50°37' E 000°25'917.1
2018-Jun-13 07:30N 50°40' E 000°38'917.4
2018-Jun-13 07:00N 50°45' E 000°50'917.9
2018-Jun-13 06:30N 50°49' E 001°02'918.6
2018-Jun-13 06:00N 50°54' E 001°15'1019.2
2018-Jun-13 05:30N 51°00' E 001°27'919.2
2018-Jun-13 05:00N 51°07' E 001°38'918.3
2018-Jun-13 04:30N 51°14' E 001°47'917.1
2018-Jun-13 04:00N 51°21' E 001°55'612.8
2018-Jun-13 03:30N 51°23' E 002°05'816.5
2018-Jun-13 03:00N 51°20' E 002°17'816.0
2018-Jun-13 02:30N 51°22' E 002°29'815.3
2018-Jun-13 02:00N 51°23' E 002°41'610.9
2018-Jun-13 01:30N 51°25' E 002°49'713.8
2018-Jun-13 01:01N 51°25' E 003°00'815.0
2018-Jun-13 00:31N 51°24' E 003°12'714.6
2018-Jun-13 00:01N 51°25' E 003°24'612.6
2018-Jun-12 23:30N 51°26' E 003°34'  

Dump ship's entire track history